createdAt,value
2019-02-07T00:00:53.300Z,4.08
2019-02-07T00:03:22.296Z,4.08
2019-02-07T00:05:51.282Z,4.07
2019-02-07T00:08:20.652Z,4.11
2019-02-07T00:10:49.609Z,4.14
2019-02-07T00:13:18.623Z,4.17
2019-02-07T00:15:47.607Z,4.16
2019-02-07T00:18:16.635Z,4.17
2019-02-07T00:20:45.789Z,4.18
2019-02-07T00:23:15.068Z,4.17
2019-02-07T00:25:44.057Z,4.23
2019-02-07T00:28:13.042Z,4.19
2019-02-07T00:30:42.030Z,4.19
2019-02-07T00:33:11.027Z,4.19
2019-02-07T00:35:40.015Z,4.19
2019-02-07T00:38:10.727Z,4.18
2019-02-07T00:40:39.715Z,4.19
2019-02-07T00:43:08.799Z,4.18
2019-02-07T00:45:37.808Z,4.25
2019-02-07T00:48:06.815Z,4.22
2019-02-07T00:50:35.812Z,4.20
2019-02-07T00:53:05.218Z,4.16
2019-02-07T00:55:34.229Z,4.16
2019-02-07T00:58:03.283Z,4.20
2019-02-07T01:00:32.262Z,4.18
2019-02-07T01:03:01.447Z,4.16
2019-02-07T01:05:30.505Z,4.15
2019-02-07T01:07:59.971Z,4.18
2019-02-07T01:10:29.100Z,4.22
2019-02-07T01:12:58.103Z,4.19
2019-02-07T01:15:27.086Z,4.18
2019-02-07T01:17:56.109Z,4.18
2019-02-07T01:20:25.093Z,4.17
2019-02-07T01:22:54.455Z,4.23
2019-02-07T01:25:23.479Z,4.20
2019-02-07T01:27:52.528Z,4.16
2019-02-07T01:30:22.056Z,4.17
2019-02-07T01:32:51.057Z,4.11
2019-02-07T01:35:20.080Z,4.09
2019-02-07T01:37:49.063Z,4.12
2019-02-07T01:40:18.702Z,4.13
2019-02-07T01:42:47.676Z,4.12
2019-02-07T01:45:19.426Z,4.14
2019-02-07T01:47:48.421Z,4.13
2019-02-07T01:50:18.803Z,4.11
2019-02-07T01:52:48.050Z,4.11
2019-02-07T01:55:17.284Z,4.11
2019-02-07T01:57:46.290Z,4.20
2019-02-07T02:00:16.714Z,4.22
2019-02-07T02:02:51.838Z,4.22
2019-02-07T02:05:20.845Z,4.17
2019-02-07T02:08:10.710Z,4.19
2019-02-07T02:10:39.698Z,4.15
2019-02-07T02:13:08.693Z,4.22
2019-02-07T02:15:37.675Z,4.18
2019-02-07T02:18:06.918Z,4.16
2019-02-07T02:20:35.934Z,4.16
2019-02-07T02:23:04.922Z,4.21
2019-02-07T02:25:33.955Z,4.15
2019-02-07T02:28:02.957Z,4.18
2019-02-07T02:30:33.809Z,4.18
2019-02-07T02:33:03.078Z,4.17
2019-02-07T02:35:32.109Z,4.17
2019-02-07T02:38:01.071Z,4.14
2019-02-07T02:40:30.070Z,4.12
2019-02-07T02:42:59.063Z,4.14
2019-02-07T02:45:37.064Z,4.12
2019-02-07T02:47:58.766Z,4.12
2019-02-07T02:50:27.770Z,4.13
2019-02-07T02:52:56.760Z,4.14
2019-02-07T02:55:36.878Z,4.19
2019-02-07T02:58:06.070Z,4.20
2019-02-07T03:00:53.996Z,4.18
2019-02-07T03:03:45.049Z,4.15
2019-02-07T03:06:28.776Z,4.11
2019-02-07T03:09:34.443Z,4.12
2019-02-07T03:12:39.312Z,4.14
2019-02-07T03:15:27.546Z,4.14
2019-02-07T03:18:21.550Z,4.19
2019-02-07T03:21:07.944Z,4.19
2019-02-07T03:23:58.094Z,4.24
2019-02-07T03:26:38.705Z,4.30
2019-02-07T03:29:35.511Z,4.28
2019-02-07T03:32:22.147Z,4.30
2019-02-07T03:35:02.521Z,4.27
2019-02-07T03:37:54.733Z,4.31
2019-02-07T03:40:41.155Z,4.27
2019-02-07T03:43:32.119Z,4.26
2019-02-07T03:46:12.213Z,4.20
2019-02-07T03:48:48.371Z,4.18
2019-02-07T03:51:39.113Z,4.20
2019-02-07T03:54:21.374Z,4.18
2019-02-07T03:57:15.788Z,4.23
2019-02-07T04:00:02.252Z,4.23
2019-02-07T04:02:48.668Z,4.18
2019-02-07T04:05:39.359Z,4.17
2019-02-07T04:08:19.773Z,4.19
2019-02-07T04:11:13.204Z,4.17
2019-02-07T04:14:13.097Z,4.16
2019-02-07T04:17:01.025Z,4.13
2019-02-07T04:19:54.442Z,4.12
2019-02-07T04:22:40.934Z,4.14
2019-02-07T04:25:34.313Z,4.20
2019-02-07T04:28:11.560Z,4.14
2019-02-07T04:31:02.664Z,4.12
2019-02-07T04:34:09.283Z,4.15
2019-02-07T04:36:48.613Z,4.14
2019-02-07T04:39:36.918Z,4.15
2019-02-07T04:42:30.758Z,4.20
2019-02-07T04:45:19.023Z,4.19
2019-02-07T04:48:10.187Z,4.19
2019-02-07T04:51:02.613Z,4.18
2019-02-07T04:53:53.323Z,4.24
2019-02-07T04:56:40.047Z,4.19
2019-02-07T04:59:28.694Z,4.19
2019-02-07T05:02:16.945Z,4.24
2019-02-07T05:05:17.171Z,4.31
2019-02-07T05:08:12.333Z,4.29
2019-02-07T05:11:03.058Z,4.26
2019-02-07T05:14:09.258Z,4.33
2019-02-07T05:16:57.259Z,4.33
2019-02-07T05:19:38.522Z,4.33
2019-02-07T05:22:25.206Z,4.32
2019-02-07T05:25:16.205Z,4.31
2019-02-07T05:28:10.321Z,4.34
2019-02-07T05:30:58.983Z,4.42
2019-02-07T05:34:02.206Z,4.38
2019-02-07T05:36:59.123Z,4.43
2019-02-07T05:39:45.664Z,4.46
2019-02-07T05:42:32.064Z,4.46
2019-02-07T05:45:10.739Z,4.50
2019-02-07T05:47:56.669Z,4.51
2019-02-07T05:50:43.207Z,4.48
2019-02-07T05:53:37.347Z,4.44
2019-02-07T05:56:28.786Z,4.46
2019-02-07T05:59:15.800Z,4.44
2019-02-07T06:02:08.501Z,4.49
2019-02-07T06:04:58.231Z,4.50
2019-02-07T06:07:44.853Z,4.47
2019-02-07T06:10:50.803Z,4.48
2019-02-07T06:13:36.074Z,4.47
2019-02-07T06:16:27.037Z,4.48
2019-02-07T06:19:14.997Z,4.48
2019-02-07T06:22:02.945Z,4.45
2019-02-07T06:24:56.756Z,4.46
2019-02-07T06:27:43.493Z,4.45
2019-02-07T06:30:39.024Z,4.43
2019-02-07T06:33:25.748Z,4.42
2019-02-07T06:36:32.032Z,4.43
2019-02-07T06:39:32.247Z,4.41
2019-02-07T06:42:23.204Z,4.45
2019-02-07T06:45:29.228Z,4.37
2019-02-07T06:48:32.286Z,4.45
2019-02-07T06:51:22.987Z,4.44
2019-02-07T06:54:22.948Z,4.44
2019-02-07T06:57:16.743Z,4.55
2019-02-07T07:00:03.854Z,4.50
2019-02-07T07:02:57.881Z,4.49
2019-02-07T07:05:45.819Z,4.43
2019-02-07T07:08:36.970Z,4.47
2019-02-07T07:11:24.947Z,4.41
2019-02-07T07:14:12.903Z,4.45
2019-02-07T07:16:59.337Z,4.39
2019-02-07T07:20:05.571Z,4.37
2019-02-07T07:22:59.497Z,4.42
2019-02-07T07:25:42.046Z,4.38
2019-02-07T07:28:29.947Z,4.37
2019-02-07T07:31:12.895Z,4.34
2019-02-07T07:33:50.279Z,4.37
2019-02-07T07:36:36.934Z,4.32
2019-02-07T07:39:27.874Z,4.35
2019-02-07T07:42:22.088Z,4.31
2019-02-07T07:45:15.805Z,4.35
2019-02-07T07:48:02.193Z,4.34
2019-02-07T07:50:57.158Z,4.25
2019-02-07T07:53:53.950Z,4.28
2019-02-07T07:56:44.668Z,4.24
2019-02-07T07:59:25.494Z,4.25
2019-02-07T08:02:19.541Z,4.32
2019-02-07T08:05:03.816Z,4.37
2019-02-07T08:07:50.535Z,4.34
2019-02-07T08:10:37.508Z,4.25
2019-02-07T08:13:27.308Z,4.31
2019-02-07T08:16:24.273Z,4.32
2019-02-07T08:19:10.991Z,4.28
2019-02-07T08:21:54.280Z,4.29
2019-02-07T08:24:48.308Z,4.38
2019-02-07T08:27:36.257Z,4.40
2019-02-07T08:30:36.035Z,4.34
2019-02-07T08:33:21.393Z,4.39
2019-02-07T08:36:08.555Z,4.43
2019-02-07T08:39:05.709Z,4.53
2019-02-07T08:42:05.603Z,4.60
2019-02-07T08:45:07.755Z,4.57
2019-02-07T08:48:03.873Z,4.61
2019-02-07T08:50:59.578Z,4.66
2019-02-07T08:53:50.030Z,4.66
2019-02-07T08:56:41.936Z,4.68
2019-02-07T08:59:19.200Z,4.71
2019-02-07T09:02:00.010Z,4.73
2019-02-07T09:04:50.957Z,4.72
2019-02-07T09:07:38.910Z,4.75
2019-02-07T09:10:28.051Z,4.80
2019-02-07T09:13:14.902Z,4.75
2019-02-07T09:16:05.604Z,4.79
2019-02-07T09:18:53.555Z,4.75
2019-02-07T09:21:32.255Z,4.69
2019-02-07T09:24:20.222Z,4.75
2019-02-07T09:27:08.173Z,4.72
2019-02-07T09:29:55.166Z,4.79
2019-02-07T09:32:55.332Z,4.75
2019-02-07T09:35:49.373Z,4.73
2019-02-07T09:38:40.073Z,4.69
2019-02-07T09:41:37.633Z,4.72
2019-02-07T09:44:24.051Z,4.72
2019-02-07T09:47:10.747Z,4.67
2019-02-07T09:50:10.721Z,4.63
2019-02-07T09:52:47.647Z,4.56
2019-02-07T09:55:38.668Z,4.52
2019-02-07T09:58:32.671Z,4.52
2019-02-07T10:01:26.639Z,4.61
2019-02-07T10:04:13.090Z,4.59
2019-02-07T10:07:01.021Z,4.51
2019-02-07T10:09:47.799Z,4.44
2019-02-07T10:12:35.760Z,4.45
2019-02-07T10:15:28.038Z,4.42
2019-02-07T10:18:32.530Z,4.46
2019-02-07T10:21:11.080Z,4.43
2019-02-07T10:23:55.803Z,4.45
2019-02-07T10:26:42.433Z,4.47
2019-02-07T10:29:22.573Z,4.48
2019-02-07T10:32:03.137Z,4.41
2019-02-07T10:35:02.928Z,4.34
2019-02-07T10:38:03.001Z,4.39
2019-02-07T10:40:50.933Z,4.38
2019-02-07T10:43:38.901Z,4.32
2019-02-07T10:46:29.899Z,4.35
2019-02-07T10:49:28.941Z,4.43
2019-02-07T10:52:11.197Z,4.45
2019-02-07T10:55:11.300Z,4.50
2019-02-07T10:58:08.412Z,4.60
2019-02-07T11:00:54.817Z,4.66
2019-02-07T11:03:42.792Z,4.70
2019-02-07T11:06:39.430Z,4.72
2019-02-07T11:09:33.610Z,4.80
2019-02-07T11:12:21.574Z,4.82
2019-02-07T11:15:21.486Z,4.80
2019-02-07T11:18:21.666Z,4.91
2019-02-07T11:21:09.590Z,4.98
2019-02-07T11:24:04.121Z,5.03
2019-02-07T11:26:50.728Z,5.12
2019-02-07T11:29:44.697Z,5.22
2019-02-07T11:32:32.627Z,5.29
2019-02-07T11:35:19.119Z,5.40
2019-02-07T11:38:12.838Z,5.40
2019-02-07T11:40:59.109Z,5.45
2019-02-07T11:43:59.039Z,5.62
2019-02-07T11:46:49.985Z,5.68
2019-02-07T11:49:36.273Z,5.74
2019-02-07T11:52:14.647Z,5.76
2019-02-07T11:54:56.837Z,5.78
2019-02-07T11:57:47.836Z,5.85
2019-02-07T12:00:28.827Z,5.77
2019-02-07T12:03:11.337Z,5.72
2019-02-07T12:06:05.388Z,5.78
2019-02-07T12:08:48.857Z,5.84
2019-02-07T12:11:43.322Z,5.94
2019-02-07T12:14:43.462Z,6.03
2019-02-07T12:17:30.081Z,6.16
2019-02-07T12:20:21.103Z,6.29
2019-02-07T12:23:08.160Z,6.52
2019-02-07T12:25:54.603Z,6.62
2019-02-07T12:28:42.562Z,6.76
2019-02-07T12:31:32.599Z,6.88
2019-02-07T12:34:20.548Z,6.97
2019-02-07T12:37:07.194Z,7.04
2019-02-07T12:39:53.719Z,7.07
2019-02-07T12:42:44.681Z,7.20
2019-02-07T12:45:32.688Z,7.17
2019-02-07T12:48:26.366Z,7.13
2019-02-07T12:51:20.491Z,7.14
2019-02-07T12:54:11.883Z,7.14
2019-02-07T12:57:00.207Z,7.14
2019-02-07T12:59:46.914Z,7.26
2019-02-07T13:02:37.703Z,7.36
2019-02-07T13:05:37.387Z,7.50
2019-02-07T13:08:16.077Z,7.65
2019-02-07T13:11:06.821Z,7.75
2019-02-07T13:13:53.497Z,7.68
2019-02-07T13:16:38.291Z,7.61
2019-02-07T13:19:40.249Z,7.52
2019-02-07T13:22:20.746Z,7.44
2019-02-07T13:25:07.170Z,7.35
2019-02-07T13:28:04.333Z,7.34
2019-02-07T13:30:46.066Z,7.29
2019-02-07T13:33:25.607Z,7.25
2019-02-07T13:36:12.288Z,7.25
2019-02-07T13:39:15.169Z,7.33
2019-02-07T13:42:01.472Z,7.45
2019-02-07T13:45:04.715Z,7.50
2019-02-07T13:47:52.682Z,7.66
2019-02-07T13:50:55.859Z,7.67
2019-02-07T13:54:02.331Z,7.80
2019-02-07T13:56:40.556Z,7.86
2019-02-07T13:59:25.731Z,7.92
2019-02-07T14:02:22.681Z,7.97
2019-02-07T14:05:14.254Z,8.07
2019-02-07T14:08:02.214Z,8.10
2019-02-07T14:10:53.005Z,8.16
2019-02-07T14:13:41.234Z,8.22
2019-02-07T14:16:35.172Z,8.30
2019-02-07T14:19:22.811Z,8.28
2019-02-07T14:22:16.564Z,8.23
2019-02-07T14:25:02.430Z,8.12
2019-02-07T14:27:46.416Z,8.15
2019-02-07T14:30:49.627Z,8.10
2019-02-07T14:33:46.526Z,8.04
2019-02-07T14:36:29.769Z,7.99
2019-02-07T14:39:32.776Z,7.84
2019-02-07T14:42:20.855Z,7.82
2019-02-07T14:45:11.576Z,7.75
2019-02-07T14:47:40.587Z,7.73
2019-02-07T14:50:15.045Z,7.64
2019-02-07T14:52:40.512Z,7.58
2019-02-07T14:55:09.629Z,7.47
2019-02-07T14:57:39.183Z,7.42
2019-02-07T15:00:11.676Z,7.41
2019-02-07T15:02:40.771Z,7.39
2019-02-07T15:05:10.917Z,7.34
2019-02-07T15:07:39.927Z,7.26
2019-02-07T15:10:11.561Z,7.23
2019-02-07T15:12:40.757Z,7.23
2019-02-07T15:15:11.787Z,7.28
2019-02-07T15:17:40.868Z,7.28
2019-02-07T15:20:10.033Z,7.31
2019-02-07T15:22:39.078Z,7.33
2019-02-07T15:25:08.188Z,7.33
2019-02-07T15:27:37.429Z,7.28
2019-02-07T15:30:08.621Z,7.25
2019-02-07T15:32:37.738Z,7.17
2019-02-07T15:35:09.964Z,7.16
2019-02-07T15:37:39.031Z,7.12
2019-02-07T15:40:11.681Z,7.08
2019-02-07T15:42:40.694Z,7.02
2019-02-07T15:45:10.956Z,6.97
2019-02-07T15:47:40.032Z,6.93
2019-02-07T15:50:16.199Z,6.96
2019-02-07T15:52:45.247Z,6.85
2019-02-07T15:55:14.485Z,6.76
2019-02-07T15:57:43.627Z,6.70
2019-02-07T16:00:43.728Z,6.63
2019-02-07T16:03:47.162Z,6.59
2019-02-07T16:06:16.235Z,6.49
2019-02-07T16:08:45.267Z,6.38
2019-02-07T16:11:15.283Z,6.35
2019-02-07T16:13:44.273Z,6.30
2019-02-07T16:16:14.141Z,6.22
2019-02-07T16:18:43.203Z,6.14
2019-02-07T16:21:12.243Z,6.10
2019-02-07T16:23:41.842Z,6.04
2019-02-07T16:26:11.944Z,6.04
2019-02-07T16:28:40.990Z,6.03
2019-02-07T16:31:10.574Z,5.99
2019-02-07T16:33:39.567Z,5.94
2019-02-07T16:36:08.595Z,5.90
2019-02-07T16:38:37.583Z,5.90
2019-02-07T16:41:06.892Z,5.85
2019-02-07T16:43:36.146Z,5.83
2019-02-07T16:46:05.456Z,5.79
2019-02-07T16:48:34.704Z,5.73
2019-02-07T16:51:03.727Z,5.66
2019-02-07T16:53:32.741Z,5.65
2019-02-07T16:56:02.269Z,5.64
2019-02-07T16:58:31.339Z,5.57
2019-02-07T17:01:00.354Z,5.55
2019-02-07T17:03:29.429Z,5.53
2019-02-07T17:05:58.486Z,5.49
2019-02-07T17:08:27.556Z,5.43
2019-02-07T17:10:56.619Z,5.32
2019-02-07T17:13:25.621Z,5.28
2019-02-07T17:15:54.655Z,5.25
2019-02-07T17:18:23.880Z,5.17
2019-02-07T17:20:53.097Z,5.11
2019-02-07T17:23:22.140Z,5.14
2019-02-07T17:25:51.623Z,5.15
2019-02-07T17:28:20.691Z,5.17
2019-02-07T17:30:50.105Z,5.15
2019-02-07T17:33:19.751Z,5.15
2019-02-07T17:35:50.135Z,5.13
2019-02-07T17:38:19.690Z,5.10
2019-02-07T17:40:48.710Z,5.10
2019-02-07T17:43:17.844Z,5.09
2019-02-07T17:45:46.875Z,5.11
2019-02-07T17:48:15.895Z,5.12
2019-02-07T17:50:44.898Z,5.17
2019-02-07T17:53:13.978Z,5.13
2019-02-07T17:55:43.019Z,5.11
2019-02-07T17:58:12.341Z,5.18
2019-02-07T18:01:01.499Z,5.20
2019-02-07T18:03:30.727Z,5.20
2019-02-07T18:05:59.803Z,5.20
2019-02-07T18:08:29.358Z,5.17
2019-02-07T18:10:58.718Z,5.17
2019-02-07T18:13:27.912Z,5.16
2019-02-07T18:15:57.618Z,5.16
2019-02-07T18:18:26.852Z,5.14
2019-02-07T18:20:55.933Z,5.18
2019-02-07T18:23:25.180Z,5.19
2019-02-07T18:25:54.816Z,5.22
2019-02-07T18:28:26.257Z,5.20
2019-02-07T18:30:55.334Z,5.22
2019-02-07T18:33:24.617Z,5.25
2019-02-07T18:35:53.612Z,5.26
2019-02-07T18:38:22.717Z,5.28
2019-02-07T18:40:51.837Z,5.20
2019-02-07T18:43:21.104Z,5.20
2019-02-07T18:45:50.300Z,5.15
2019-02-07T18:48:20.304Z,5.14
2019-02-07T18:50:50.534Z,5.11
2019-02-07T18:53:20.497Z,5.10
2019-02-07T18:55:49.890Z,5.09
2019-02-07T18:58:20.166Z,5.04
2019-02-07T19:00:49.375Z,5.03
2019-02-07T19:03:18.414Z,5.01
2019-02-07T19:05:47.597Z,5.00
2019-02-07T19:08:16.893Z,5.00
2019-02-07T19:10:46.154Z,4.99
2019-02-07T19:13:15.602Z,4.97
2019-02-07T19:15:54.153Z,4.94
2019-02-07T19:18:23.664Z,4.93
2019-02-07T19:20:52.761Z,4.87
2019-02-07T19:23:22.161Z,4.85
2019-02-07T19:25:51.727Z,4.81
2019-02-07T19:28:20.823Z,4.82
2019-02-07T19:30:50.018Z,4.80
2019-02-07T19:33:22.451Z,4.79
2019-02-07T19:35:50.658Z,4.78
2019-02-07T19:38:20.610Z,4.74
2019-02-07T19:40:50.123Z,4.70
2019-02-07T19:43:19.506Z,4.63
2019-02-07T19:45:49.245Z,4.61
2019-02-07T19:48:18.843Z,3.70
2019-02-07T19:50:48.260Z,4.53
2019-02-07T19:53:18.227Z,4.53
2019-02-07T19:55:47.722Z,4.49
2019-02-07T19:58:17.051Z,4.43
2019-02-07T20:00:46.514Z,4.39
2019-02-07T20:03:15.952Z,4.36
2019-02-07T20:05:45.241Z,4.34
2019-02-07T20:08:14.556Z,4.36
2019-02-07T20:10:43.880Z,4.38
2019-02-07T20:13:13.688Z,4.40
2019-02-07T20:15:43.522Z,4.38
2019-02-07T20:18:12.989Z,4.37
2019-02-07T20:20:42.590Z,4.37
2019-02-07T20:23:11.715Z,4.38
2019-02-07T20:25:41.337Z,4.41
2019-02-07T20:28:10.568Z,4.42
2019-02-07T20:30:41.351Z,4.46
2019-02-07T20:33:10.867Z,4.52
2019-02-07T20:35:40.038Z,4.57
2019-02-07T20:38:10.328Z,4.62
2019-02-07T20:40:39.364Z,4.65
2019-02-07T20:43:08.602Z,4.70
2019-02-07T20:45:37.793Z,4.73
2019-02-07T20:48:08.068Z,4.76
2019-02-07T20:50:37.111Z,4.80
2019-02-07T20:53:06.264Z,4.85
2019-02-07T20:55:35.425Z,4.88
2019-02-07T20:58:04.848Z,4.90
2019-02-07T21:00:35.242Z,4.95
2019-02-07T21:03:04.776Z,4.98
2019-02-07T21:05:33.923Z,5.00
2019-02-07T21:08:03.058Z,5.03
2019-02-07T21:10:33.197Z,5.02
2019-02-07T21:13:02.300Z,5.07
2019-02-07T21:15:31.591Z,5.22
2019-02-07T21:18:00.987Z,5.26
2019-02-07T21:20:31.026Z,5.28
2019-02-07T21:23:00.578Z,5.36
2019-02-07T21:25:35.752Z,5.43
2019-02-07T21:28:05.662Z,5.50
2019-02-07T21:30:34.797Z,5.47
2019-02-07T21:33:03.884Z,5.44
2019-02-07T21:35:32.962Z,5.53
2019-02-07T21:38:02.157Z,5.52
2019-02-07T21:40:31.226Z,5.53
2019-02-07T21:43:00.326Z,5.54
2019-02-07T21:45:29.776Z,5.56
2019-02-07T21:48:00.801Z,5.55
2019-02-07T21:50:30.318Z,5.60
2019-02-07T21:52:59.491Z,5.58
2019-02-07T21:55:29.808Z,5.62
2019-02-07T21:57:58.812Z,5.71
2019-02-07T22:00:30.052Z,5.67
2019-02-07T22:02:59.054Z,5.63
2019-02-07T22:05:28.329Z,5.70
2019-02-07T22:07:57.353Z,5.72
2019-02-07T22:10:26.348Z,5.72
2019-02-07T22:12:55.535Z,5.76
2019-02-07T22:15:24.640Z,5.79
2019-02-07T22:17:53.599Z,5.77
2019-02-07T22:20:23.418Z,5.74
2019-02-07T22:22:52.420Z,5.74
2019-02-07T22:25:21.740Z,5.73
2019-02-07T22:27:50.752Z,5.70
2019-02-07T22:30:25.484Z,5.70
2019-02-07T22:32:53.648Z,5.67
2019-02-07T22:35:22.668Z,5.65
2019-02-07T22:37:51.685Z,5.67
2019-02-07T22:40:21.581Z,5.66
2019-02-07T22:42:50.623Z,5.67
2019-02-07T22:45:20.107Z,5.65
2019-02-07T22:47:49.143Z,5.61
2019-02-07T22:50:25.592Z,5.57
2019-02-07T22:52:56.912Z,5.59
2019-02-07T22:55:25.371Z,5.61
2019-02-07T22:57:54.382Z,5.61
2019-02-07T23:01:10.206Z,5.68
2019-02-07T23:03:44.293Z,5.75
2019-02-07T23:06:13.315Z,5.84
2019-02-07T23:08:42.306Z,5.92
2019-02-07T23:11:11.300Z,5.99
2019-02-07T23:13:40.288Z,6.00
2019-02-07T23:16:09.465Z,6.03
2019-02-07T23:18:39.132Z,6.06
2019-02-07T23:21:08.394Z,6.07
2019-02-07T23:23:37.357Z,6.04
2019-02-07T23:26:07.342Z,6.10
2019-02-07T23:28:36.352Z,6.14
2019-02-07T23:31:06.977Z,6.14
2019-02-07T23:33:36.145Z,6.19
2019-02-07T23:36:05.899Z,6.22
2019-02-07T23:38:34.884Z,6.30
2019-02-07T23:41:03.868Z,6.33
2019-02-07T23:43:32.940Z,6.30
2019-02-07T23:46:01.968Z,6.33
2019-02-07T23:48:30.945Z,6.37
2019-02-07T23:51:00.340Z,6.35
2019-02-07T23:53:29.333Z,6.44
2019-02-07T23:55:58.320Z,6.43
2019-02-07T23:58:27.459Z,6.41
